EAG5501 FMMI-FQMA
Flight info
| Callsign | EAG5501 |
|---|---|
| Flight time | 2h 33m |
| Altitude | 40000 |
| Route | MENIR1E TU UG653 SUNIR/N0516F280 UG653 NIKAM NIKAM1A |
| Aircraft | A359/H-SDE2E3GHIJ3J4J5LM1ORWXY/LB1D1 |
Departure
| Time | 2026-04-26 23:34 |
|---|---|
| Airport | Ivato International Airport (FMMI) |
Arrival
| Time | 2026-04-27 02:07 |
|---|---|
| Airport | Maputo Airport (FQMA) |
| Time | Latitude | Longitude | Altitude | Speed | Heading |
|---|---|---|---|---|---|
| 2026-04-26 23:21 | -18.79863 | 47.47637 | 4172 ft | 0 kts | 189° |
| 2026-04-26 23:26 | -18.79856 | 47.47638 | 4172 ft | 4 kts | 192° |
| 2026-04-26 23:27 | -18.79833 | 47.47648 | 4172 ft | 4 kts | 232° |
| 2026-04-26 23:27 | -18.79826 | 47.47673 | 4172 ft | 4 kts | 276° |
| 2026-04-26 23:27 | -18.79827 | 47.47682 | 4172 ft | 0 kts | 281° |
| 2026-04-26 23:29 | -18.79827 | 47.47681 | 4172 ft | 2 kts | 281° |
| 2026-04-26 23:30 | -18.79817 | 47.47644 | 4172 ft | 7 kts | 289° |
| 2026-04-26 23:30 | -18.79781 | 47.47601 | 4172 ft | 9 kts | 332° |
| 2026-04-26 23:30 | -18.79708 | 47.47604 | 4171 ft | 12 kts | 9° |
| 2026-04-26 23:30 | -18.79646 | 47.47549 | 4170 ft | 15 kts | 290° |
| 2026-04-26 23:31 | -18.79622 | 47.47423 | 4168 ft | 20 kts | 279° |
| 2026-04-26 23:31 | -18.79595 | 47.47259 | 4168 ft | 25 kts | 280° |
| 2026-04-26 23:31 | -18.79565 | 47.47065 | 4166 ft | 29 kts | 279° |
| 2026-04-26 23:31 | -18.79533 | 47.46842 | 4168 ft | 32 kts | 278° |
| 2026-04-26 23:32 | -18.79499 | 47.46600 | 4167 ft | 33 kts | 279° |
| 2026-04-26 23:32 | -18.79444 | 47.46475 | 4168 ft | 9 kts | 277° |
| 2026-04-26 23:32 | -18.79469 | 47.46463 | 4168 ft | 4 kts | 148° |
| 2026-04-26 23:32 | -18.79482 | 47.46502 | 4167 ft | 0 kts | 102° |
| 2026-04-26 23:33 | -18.79507 | 47.46642 | 4167 ft | 54 kts | 99° |
| 2026-04-26 23:33 | -18.79545 | 47.46911 | 4167 ft | 26 kts | 99° |
| 2026-04-26 23:33 | -18.79615 | 47.47375 | 4168 ft | 103 kts | 99° |
| 2026-04-26 23:34 | -18.79765 | 47.48384 | 4183 ft | 171 kts | 98° |
| 2026-04-26 23:34 | -18.79944 | 47.49641 | 5048 ft | 173 kts | 98° |
| 2026-04-26 23:34 | -18.80107 | 47.50896 | 5887 ft | 171 kts | 99° |
| 2026-04-26 23:34 | -18.80276 | 47.52126 | 6456 ft | 173 kts | 102° |
| 2026-04-26 23:35 | -18.80492 | 47.53454 | 6726 ft | 193 kts | 102° |
| 2026-04-26 23:35 | -18.80730 | 47.54932 | 6999 ft | 215 kts | 101° |
| 2026-04-26 23:35 | -18.80982 | 47.56569 | 7300 ft | 237 kts | 101° |
| 2026-04-26 23:35 | -18.81257 | 47.58380 | 7591 ft | 261 kts | 100° |
| 2026-04-26 23:36 | -18.81546 | 47.60309 | 8076 ft | 275 kts | 100° |
| 2026-04-26 23:36 | -18.81956 | 47.62298 | 8791 ft | 280 kts | 110° |
| 2026-04-26 23:36 | -18.82975 | 47.64044 | 9561 ft | 282 kts | 136° |
| 2026-04-26 23:36 | -18.84636 | 47.65131 | 10311 ft | 286 kts | 161° |
| 2026-04-26 23:37 | -18.86656 | 47.65338 | 10694 ft | 304 kts | 188° |
| 2026-04-26 23:37 | -18.88794 | 47.64888 | 11016 ft | 322 kts | 190° |
| 2026-04-26 23:37 | -18.91057 | 47.64460 | 11349 ft | 339 kts | 189° |
| 2026-04-26 23:37 | -18.93410 | 47.64049 | 11661 ft | 354 kts | 188° |
| 2026-04-26 23:38 | -18.95891 | 47.63630 | 12034 ft | 366 kts | 188° |
| 2026-04-26 23:38 | -18.98449 | 47.63205 | 12507 ft | 373 kts | 188° |
| 2026-04-26 23:38 | -19.01041 | 47.62777 | 13025 ft | 379 kts | 188° |
| 2026-04-26 23:38 | -19.03664 | 47.62335 | 13535 ft | 383 kts | 190° |
| 2026-04-26 23:39 | -19.06210 | 47.61570 | 14002 ft | 388 kts | 203° |
| 2026-04-26 23:39 | -19.08516 | 47.60055 | 14446 ft | 391 kts | 221° |
| 2026-04-26 23:39 | -19.10291 | 47.57874 | 14913 ft | 393 kts | 238° |
| 2026-04-26 23:39 | -19.11371 | 47.55222 | 15371 ft | 395 kts | 256° |
| 2026-04-26 23:40 | -19.11654 | 47.52331 | 15869 ft | 396 kts | 273° |
| 2026-04-26 23:40 | -19.11556 | 47.50402 | 16186 ft | 397 kts | 272° |
| 2026-04-26 23:40 | -19.11702 | 47.47480 | 16676 ft | 399 kts | 263° |
| 2026-04-26 23:40 | -19.12222 | 47.43612 | 17338 ft | 402 kts | 261° |
| 2026-04-26 23:41 | -19.12508 | 47.41635 | 17660 ft | 403 kts | 261° |
| 2026-04-26 23:41 | -19.12930 | 47.38730 | 18141 ft | 405 kts | 261° |
| 2026-04-26 23:41 | -19.13359 | 47.35771 | 18578 ft | 407 kts | 261° |
| 2026-04-26 23:41 | -19.13790 | 47.32795 | 18982 ft | 409 kts | 262° |
| 2026-04-26 23:42 | -19.14253 | 47.29808 | 19380 ft | 412 kts | 259° |
| 2026-04-26 23:42 | -19.16356 | 47.24205 | 20201 ft | 418 kts | 238° |
| 2026-04-26 23:42 | -19.18195 | 47.21807 | 20646 ft | 422 kts | 226° |
| 2026-04-26 23:43 | -19.20444 | 47.19774 | 21099 ft | 426 kts | 219° |
| 2026-04-26 23:43 | -19.22815 | 47.17877 | 21515 ft | 429 kts | 219° |
| 2026-04-26 23:43 | -19.25217 | 47.15974 | 21940 ft | 432 kts | 219° |
| 2026-04-26 23:43 | -19.27601 | 47.14077 | 22371 ft | 435 kts | 219° |
| 2026-04-26 23:44 | -19.30023 | 47.12143 | 22803 ft | 437 kts | 219° |
| 2026-04-26 23:44 | -19.32461 | 47.10192 | 23244 ft | 440 kts | 220° |
| 2026-04-26 23:44 | -19.34913 | 47.08226 | 23683 ft | 442 kts | 220° |
| 2026-04-26 23:44 | -19.37382 | 47.06246 | 24079 ft | 445 kts | 220° |
| 2026-04-26 23:45 | -19.39851 | 47.04263 | 24481 ft | 447 kts | 220° |
| 2026-04-26 23:45 | -19.42308 | 47.02289 | 24904 ft | 449 kts | 220° |
| 2026-04-26 23:45 | -19.44809 | 47.00278 | 25334 ft | 452 kts | 220° |
| 2026-04-26 23:45 | -19.47322 | 46.98257 | 25763 ft | 454 kts | 220° |
| 2026-04-26 23:46 | -19.49851 | 46.96221 | 26220 ft | 457 kts | 221° |
| 2026-04-26 23:46 | -19.52394 | 46.94175 | 26672 ft | 459 kts | 221° |
| 2026-04-26 23:46 | -19.54946 | 46.92119 | 27122 ft | 462 kts | 221° |
| 2026-04-26 23:46 | -19.57482 | 46.90076 | 27578 ft | 465 kts | 221° |
| 2026-04-26 23:47 | -19.60066 | 46.87994 | 28036 ft | 467 kts | 221° |
| 2026-04-26 23:47 | -19.62660 | 46.85902 | 28465 ft | 470 kts | 221° |
| 2026-04-26 23:47 | -19.65282 | 46.83786 | 28867 ft | 473 kts | 221° |
| 2026-04-26 23:47 | -19.67884 | 46.81687 | 29292 ft | 476 kts | 221° |
| 2026-04-26 23:48 | -19.70527 | 46.79553 | 29681 ft | 479 kts | 221° |
| 2026-04-26 23:48 | -19.73189 | 46.77402 | 30097 ft | 481 kts | 221° |
| 2026-04-26 23:48 | -19.75858 | 46.75246 | 30432 ft | 484 kts | 221° |
| 2026-04-26 23:48 | -19.78550 | 46.73070 | 30763 ft | 485 kts | 221° |
| 2026-04-26 23:49 | -19.81252 | 46.70885 | 31115 ft | 487 kts | 221° |
| 2026-04-26 23:49 | -19.83948 | 46.68705 | 31469 ft | 487 kts | 221° |
| 2026-04-26 23:49 | -19.86652 | 46.66517 | 31800 ft | 489 kts | 221° |
| 2026-04-26 23:49 | -19.89326 | 46.64352 | 32103 ft | 490 kts | 221° |
| 2026-04-26 23:50 | -19.92035 | 46.62158 | 32493 ft | 488 kts | 221° |
| 2026-04-26 23:50 | -19.94725 | 46.59978 | 32980 ft | 485 kts | 222° |
| 2026-04-26 23:50 | -19.97410 | 46.57801 | 33460 ft | 482 kts | 222° |
| 2026-04-26 23:50 | -20.00077 | 46.55637 | 33883 ft | 480 kts | 221° |
| 2026-04-26 23:51 | -20.02734 | 46.53482 | 34304 ft | 478 kts | 221° |
| 2026-04-26 23:51 | -20.05370 | 46.51342 | 34634 ft | 476 kts | 221° |
| 2026-04-26 23:51 | -20.07978 | 46.49224 | 34959 ft | 475 kts | 221° |
| 2026-04-26 23:51 | -20.10604 | 46.47090 | 35270 ft | 474 kts | 221° |
| 2026-04-26 23:52 | -20.13221 | 46.44963 | 35592 ft | 473 kts | 221° |
| 2026-04-26 23:52 | -20.15831 | 46.42840 | 35905 ft | 471 kts | 221° |
| 2026-04-26 23:52 | -20.18438 | 46.40718 | 36218 ft | 470 kts | 220° |
| 2026-04-26 23:52 | -20.21008 | 46.38626 | 36477 ft | 470 kts | 220° |
| 2026-04-26 23:53 | -20.23602 | 46.36514 | 36780 ft | 468 kts | 220° |
| 2026-04-26 23:53 | -20.26186 | 46.34408 | 37088 ft | 467 kts | 220° |
| 2026-04-26 23:53 | -20.28763 | 46.32308 | 37368 ft | 465 kts | 220° |
| 2026-04-26 23:53 | -20.31325 | 46.30219 | 37661 ft | 463 kts | 219° |
| 2026-04-26 23:54 | -20.33887 | 46.28128 | 37942 ft | 462 kts | 219° |
| 2026-04-26 23:54 | -20.36434 | 46.26050 | 38232 ft | 461 kts | 219° |
| 2026-04-26 23:54 | -20.38982 | 46.23969 | 38521 ft | 459 kts | 219° |
| 2026-04-26 23:54 | -20.41512 | 46.21903 | 38734 ft | 458 kts | 219° |
| 2026-04-26 23:55 | -20.44007 | 46.19864 | 38905 ft | 457 kts | 219° |
| 2026-04-26 23:55 | -20.46533 | 46.17799 | 39070 ft | 457 kts | 219° |
| 2026-04-26 23:55 | -20.49066 | 46.15727 | 39193 ft | 457 kts | 219° |
| 2026-04-26 23:55 | -20.51587 | 46.13664 | 39394 ft | 455 kts | 219° |
| 2026-04-26 23:56 | -20.54102 | 46.11605 | 39564 ft | 455 kts | 219° |
| 2026-04-26 23:56 | -20.56614 | 46.09547 | 39739 ft | 454 kts | 219° |
| 2026-04-26 23:56 | -20.59086 | 46.07522 | 39873 ft | 453 kts | 219° |
| 2026-04-26 23:56 | -20.61606 | 46.05458 | 40002 ft | 454 kts | 219° |
| 2026-04-26 23:57 | -20.66591 | 46.01369 | 40007 ft | 454 kts | 219° |
| 2026-04-26 23:57 | -20.71596 | 45.97261 | 39991 ft | 454 kts | 219° |
| 2026-04-26 23:58 | -20.76601 | 45.93148 | 39978 ft | 453 kts | 218° |
| 2026-04-26 23:58 | -20.81603 | 45.89036 | 39977 ft | 453 kts | 218° |
| 2026-04-26 23:59 | -20.86596 | 45.84927 | 39969 ft | 453 kts | 218° |
| 2026-04-26 23:59 | -20.91572 | 45.80829 | 39970 ft | 453 kts | 218° |
| 2026-04-27 00:00 | -20.96567 | 45.76712 | 39959 ft | 452 kts | 218° |
| 2026-04-27 00:00 | -21.01509 | 45.72634 | 39965 ft | 450 kts | 218° |
| 2026-04-27 00:01 | -21.06476 | 45.68532 | 39962 ft | 450 kts | 218° |
| 2026-04-27 00:01 | -21.11423 | 45.64444 | 39974 ft | 450 kts | 218° |
| 2026-04-27 00:02 | -21.16390 | 45.60335 | 39961 ft | 450 kts | 218° |
| 2026-04-27 00:02 | -21.21347 | 45.56231 | 39956 ft | 449 kts | 218° |
| 2026-04-27 00:03 | -21.26267 | 45.52155 | 39957 ft | 449 kts | 218° |
| 2026-04-27 00:03 | -21.31212 | 45.48053 | 39962 ft | 449 kts | 218° |
| 2026-04-27 00:04 | -21.36154 | 45.43951 | 39950 ft | 448 kts | 218° |
| 2026-04-27 00:04 | -21.41072 | 45.39865 | 39951 ft | 448 kts | 218° |
| 2026-04-27 00:05 | -21.46005 | 45.35763 | 39946 ft | 448 kts | 218° |
| 2026-04-27 00:05 | -21.50902 | 45.31688 | 39949 ft | 447 kts | 218° |
| 2026-04-27 00:06 | -21.55815 | 45.27595 | 39933 ft | 446 kts | 218° |
| 2026-04-27 00:06 | -21.60725 | 45.23501 | 39937 ft | 446 kts | 218° |
| 2026-04-27 00:07 | -21.65628 | 45.19410 | 39935 ft | 446 kts | 218° |
| 2026-04-27 00:07 | -21.70532 | 45.15314 | 39933 ft | 446 kts | 218° |
| 2026-04-27 00:08 | -21.75429 | 45.11220 | 39937 ft | 445 kts | 218° |
| 2026-04-27 00:08 | -21.80298 | 45.07147 | 39937 ft | 445 kts | 218° |
| 2026-04-27 00:09 | -21.85190 | 45.03050 | 39943 ft | 445 kts | 218° |
| 2026-04-27 00:09 | -21.90084 | 44.98948 | 39934 ft | 444 kts | 218° |
| 2026-04-27 00:10 | -21.94938 | 44.94877 | 39936 ft | 444 kts | 218° |
| 2026-04-27 00:10 | -21.99816 | 44.90780 | 39938 ft | 444 kts | 218° |
| 2026-04-27 00:11 | -22.04706 | 44.86671 | 39947 ft | 444 kts | 218° |
| 2026-04-27 00:11 | -22.09552 | 44.82594 | 39947 ft | 444 kts | 218° |
| 2026-04-27 00:12 | -22.14432 | 44.78485 | 39959 ft | 444 kts | 218° |
| 2026-04-27 00:12 | -22.19276 | 44.74403 | 39961 ft | 443 kts | 218° |
| 2026-04-27 00:13 | -22.24148 | 44.70294 | 39953 ft | 443 kts | 218° |
| 2026-04-27 00:13 | -22.28988 | 44.66208 | 39965 ft | 443 kts | 218° |
| 2026-04-27 00:14 | -22.33848 | 44.62102 | 39961 ft | 443 kts | 218° |
| 2026-04-27 00:14 | -22.38706 | 44.57993 | 39958 ft | 443 kts | 218° |
| 2026-04-27 00:15 | -22.43564 | 44.53880 | 39978 ft | 443 kts | 218° |
| 2026-04-27 00:15 | -22.48431 | 44.49757 | 39975 ft | 443 kts | 218° |
| 2026-04-27 00:16 | -22.53260 | 44.45661 | 39976 ft | 443 kts | 218° |
| 2026-04-27 00:16 | -22.58117 | 44.41539 | 39976 ft | 443 kts | 218° |
| 2026-04-27 00:17 | -22.62975 | 44.37411 | 39984 ft | 442 kts | 218° |
| 2026-04-27 00:17 | -22.67790 | 44.33315 | 39981 ft | 442 kts | 218° |
| 2026-04-27 00:18 | -22.72653 | 44.29176 | 39986 ft | 443 kts | 218° |
| 2026-04-27 00:18 | -22.77464 | 44.25077 | 39975 ft | 442 kts | 218° |
| 2026-04-27 00:19 | -22.82308 | 44.20946 | 39970 ft | 442 kts | 218° |
| 2026-04-27 00:19 | -22.87142 | 44.16820 | 39979 ft | 442 kts | 218° |
| 2026-04-27 00:20 | -22.91971 | 44.12695 | 39980 ft | 441 kts | 218° |
| 2026-04-27 00:20 | -22.96801 | 44.08564 | 39968 ft | 441 kts | 218° |
| 2026-04-27 00:21 | -23.01631 | 44.04430 | 39962 ft | 441 kts | 218° |
| 2026-04-27 00:21 | -23.06430 | 44.00319 | 39970 ft | 441 kts | 218° |
| 2026-04-27 00:22 | -23.11255 | 43.96180 | 39958 ft | 441 kts | 218° |
| 2026-04-27 00:22 | -23.16076 | 43.92042 | 39960 ft | 440 kts | 218° |
| 2026-04-27 00:23 | -23.20858 | 43.87933 | 39948 ft | 440 kts | 218° |
| 2026-04-27 00:23 | -23.25668 | 43.83797 | 39947 ft | 440 kts | 218° |
| 2026-04-27 00:24 | -23.30445 | 43.79685 | 39938 ft | 439 kts | 218° |
| 2026-04-27 00:24 | -23.35195 | 43.75459 | 39940 ft | 440 kts | 222° |
| 2026-04-27 00:25 | -23.38995 | 43.70247 | 39938 ft | 443 kts | 238° |
| 2026-04-27 00:25 | -23.41292 | 43.64021 | 39940 ft | 449 kts | 249° |
| 2026-04-27 00:26 | -23.43010 | 43.57451 | 39936 ft | 451 kts | 251° |
| 2026-04-27 00:26 | -23.44650 | 43.50861 | 39937 ft | 451 kts | 251° |
| 2026-04-27 00:27 | -23.46303 | 43.44304 | 39939 ft | 451 kts | 250° |
| 2026-04-27 00:27 | -23.47984 | 43.37717 | 39938 ft | 450 kts | 250° |
| 2026-04-27 00:28 | -23.49657 | 43.31177 | 39935 ft | 450 kts | 250° |
| 2026-04-27 00:28 | -23.51055 | 43.25701 | 39933 ft | 450 kts | 250° |
| 2026-04-27 00:29 | -23.52733 | 43.19117 | 39936 ft | 450 kts | 250° |
| 2026-04-27 00:29 | -23.54406 | 43.12536 | 39935 ft | 450 kts | 250° |
| 2026-04-27 00:30 | -23.56078 | 43.05944 | 39935 ft | 450 kts | 250° |
| 2026-04-27 00:30 | -23.57738 | 42.99389 | 39933 ft | 450 kts | 250° |
| 2026-04-27 00:31 | -23.59402 | 42.92805 | 39936 ft | 450 kts | 250° |
| 2026-04-27 00:31 | -23.61068 | 42.86200 | 39936 ft | 450 kts | 250° |
| 2026-04-27 00:32 | -23.62719 | 42.79642 | 39938 ft | 450 kts | 250° |
| 2026-04-27 00:32 | -23.64377 | 42.73046 | 39938 ft | 451 kts | 250° |
| 2026-04-27 00:33 | -23.66033 | 42.66441 | 39938 ft | 450 kts | 251° |
| 2026-04-27 00:33 | -23.67673 | 42.59892 | 39932 ft | 450 kts | 251° |
| 2026-04-27 00:34 | -23.69325 | 42.53280 | 39939 ft | 451 kts | 251° |
| 2026-04-27 00:34 | -23.70972 | 42.46672 | 39938 ft | 451 kts | 251° |
| 2026-04-27 00:35 | -23.72606 | 42.40109 | 39935 ft | 451 kts | 251° |
| 2026-04-27 00:35 | -23.74245 | 42.33508 | 39944 ft | 450 kts | 251° |
| 2026-04-27 00:36 | -23.75884 | 42.26897 | 39944 ft | 450 kts | 251° |
| 2026-04-27 00:36 | -23.77519 | 42.20286 | 39944 ft | 450 kts | 251° |
| 2026-04-27 00:37 | -23.79150 | 42.13679 | 39943 ft | 449 kts | 251° |
| 2026-04-27 00:37 | -23.80764 | 42.07127 | 39944 ft | 449 kts | 251° |
| 2026-04-27 00:38 | -23.82386 | 42.00534 | 39945 ft | 449 kts | 251° |
| 2026-04-27 00:38 | -23.83995 | 41.93979 | 39943 ft | 449 kts | 251° |
| 2026-04-27 00:39 | -23.85608 | 41.87393 | 39960 ft | 448 kts | 251° |
| 2026-04-27 00:39 | -23.87224 | 41.80784 | 39956 ft | 448 kts | 251° |
| 2026-04-27 00:40 | -23.88821 | 41.74238 | 39941 ft | 448 kts | 251° |
| 2026-04-27 00:40 | -23.90428 | 41.67640 | 39947 ft | 448 kts | 251° |
| 2026-04-27 00:41 | -23.92019 | 41.61092 | 39950 ft | 448 kts | 251° |
| 2026-04-27 00:41 | -23.93624 | 41.54476 | 39948 ft | 449 kts | 251° |
| 2026-04-27 00:42 | -23.95213 | 41.47912 | 39948 ft | 449 kts | 251° |
| 2026-04-27 00:42 | -23.96818 | 41.41268 | 39950 ft | 449 kts | 251° |
| 2026-04-27 00:43 | -23.98409 | 41.34668 | 39946 ft | 449 kts | 251° |
| 2026-04-27 00:43 | -23.99991 | 41.28095 | 39949 ft | 449 kts | 251° |
| 2026-04-27 00:44 | -24.01578 | 41.21484 | 39951 ft | 449 kts | 251° |
| 2026-04-27 00:44 | -24.03154 | 41.14904 | 39950 ft | 449 kts | 251° |
| 2026-04-27 00:45 | -24.04739 | 41.08280 | 39952 ft | 449 kts | 251° |
| 2026-04-27 00:45 | -24.06317 | 41.01663 | 39953 ft | 449 kts | 251° |
| 2026-04-27 00:46 | -24.07894 | 40.95043 | 39953 ft | 449 kts | 251° |
| 2026-04-27 00:46 | -24.09463 | 40.88443 | 39953 ft | 449 kts | 251° |
| 2026-04-27 00:47 | -24.11032 | 40.81826 | 39956 ft | 449 kts | 251° |
| 2026-04-27 00:47 | -24.12589 | 40.75247 | 39952 ft | 449 kts | 251° |
| 2026-04-27 00:48 | -24.14153 | 40.68625 | 39961 ft | 449 kts | 251° |
| 2026-04-27 00:48 | -24.15715 | 40.61999 | 39958 ft | 449 kts | 251° |
| 2026-04-27 00:49 | -24.17271 | 40.55385 | 39959 ft | 448 kts | 251° |
| 2026-04-27 00:49 | -24.18816 | 40.48804 | 39962 ft | 448 kts | 252° |
| 2026-04-27 00:50 | -24.21144 | 40.38860 | 39959 ft | 448 kts | 252° |
| 2026-04-27 00:51 | -24.22681 | 40.32273 | 39959 ft | 448 kts | 252° |
| 2026-04-27 00:51 | -24.24224 | 40.25653 | 39960 ft | 448 kts | 252° |
| 2026-04-27 00:52 | -24.25754 | 40.19073 | 39965 ft | 448 kts | 252° |
| 2026-04-27 00:52 | -24.27291 | 40.12450 | 39964 ft | 448 kts | 252° |
| 2026-04-27 00:53 | -24.28825 | 40.05826 | 39963 ft | 448 kts | 252° |
| 2026-04-27 00:53 | -24.30349 | 39.99234 | 39966 ft | 448 kts | 252° |
| 2026-04-27 00:54 | -24.31950 | 39.92623 | 39964 ft | 447 kts | 251° |
| 2026-04-27 00:54 | -24.33598 | 39.86037 | 39966 ft | 447 kts | 251° |
| 2026-04-27 00:55 | -24.35226 | 39.79484 | 39964 ft | 447 kts | 251° |
| 2026-04-27 00:55 | -24.36847 | 39.72893 | 39965 ft | 448 kts | 251° |
| 2026-04-27 00:56 | -24.38464 | 39.66290 | 39966 ft | 448 kts | 251° |
| 2026-04-27 00:56 | -24.40067 | 39.59727 | 39966 ft | 448 kts | 251° |
| 2026-04-27 00:57 | -24.41680 | 39.53112 | 39965 ft | 448 kts | 251° |
| 2026-04-27 00:57 | -24.43288 | 39.46506 | 39969 ft | 448 kts | 251° |
| 2026-04-27 00:58 | -24.44893 | 39.39899 | 39969 ft | 448 kts | 251° |
| 2026-04-27 00:58 | -24.46487 | 39.33327 | 39970 ft | 448 kts | 251° |
| 2026-04-27 00:59 | -24.48088 | 39.26707 | 39972 ft | 448 kts | 251° |
| 2026-04-27 00:59 | -24.49686 | 39.20091 | 39972 ft | 448 kts | 251° |
| 2026-04-27 01:00 | -24.51270 | 39.13517 | 39970 ft | 448 kts | 251° |
| 2026-04-27 01:00 | -24.52859 | 39.06907 | 39974 ft | 447 kts | 251° |
| 2026-04-27 01:01 | -24.54448 | 39.00289 | 39972 ft | 447 kts | 251° |
| 2026-04-27 01:01 | -24.56021 | 38.93719 | 39974 ft | 447 kts | 251° |
| 2026-04-27 01:02 | -24.57603 | 38.87100 | 39971 ft | 447 kts | 251° |
| 2026-04-27 01:02 | -24.59183 | 38.80473 | 39975 ft | 447 kts | 251° |
| 2026-04-27 01:03 | -24.60756 | 38.73863 | 39973 ft | 447 kts | 251° |
| 2026-04-27 01:03 | -24.62319 | 38.67285 | 39974 ft | 447 kts | 251° |
| 2026-04-27 01:04 | -24.63890 | 38.60654 | 39977 ft | 446 kts | 252° |
| 2026-04-27 01:04 | -24.65444 | 38.54084 | 39977 ft | 446 kts | 252° |
| 2026-04-27 01:05 | -24.67003 | 38.47476 | 39977 ft | 446 kts | 252° |
| 2026-04-27 01:05 | -24.68563 | 38.40854 | 39978 ft | 448 kts | 252° |
| 2026-04-27 01:06 | -24.70126 | 38.34206 | 39977 ft | 449 kts | 252° |
| 2026-04-27 01:06 | -24.71677 | 38.27591 | 39977 ft | 449 kts | 252° |
| 2026-04-27 01:07 | -24.73235 | 38.20934 | 39975 ft | 449 kts | 252° |
| 2026-04-27 01:07 | -24.74789 | 38.14279 | 39978 ft | 448 kts | 252° |
| 2026-04-27 01:08 | -24.76330 | 38.07665 | 39973 ft | 448 kts | 252° |
| 2026-04-27 01:08 | -24.77876 | 38.01014 | 39976 ft | 448 kts | 252° |
| 2026-04-27 01:09 | -24.79409 | 37.94409 | 39975 ft | 448 kts | 252° |
| 2026-04-27 01:09 | -24.80949 | 37.87757 | 39976 ft | 447 kts | 252° |
| 2026-04-27 01:10 | -24.82483 | 37.81118 | 39979 ft | 447 kts | 252° |
| 2026-04-27 01:10 | -24.84015 | 37.74470 | 39973 ft | 447 kts | 252° |
| 2026-04-27 01:11 | -24.85535 | 37.67865 | 39972 ft | 447 kts | 253° |
| 2026-04-27 01:11 | -24.87058 | 37.61229 | 39971 ft | 447 kts | 253° |
| 2026-04-27 01:12 | -24.88584 | 37.54568 | 39977 ft | 447 kts | 253° |
| 2026-04-27 01:12 | -24.90105 | 37.47911 | 39976 ft | 447 kts | 253° |
| 2026-04-27 01:13 | -24.91613 | 37.41297 | 39977 ft | 447 kts | 253° |
| 2026-04-27 01:13 | -24.93130 | 37.34630 | 39978 ft | 447 kts | 253° |
| 2026-04-27 01:14 | -24.94640 | 37.27978 | 39976 ft | 447 kts | 253° |
| 2026-04-27 01:14 | -24.96140 | 37.21357 | 39975 ft | 447 kts | 253° |
| 2026-04-27 01:15 | -24.97643 | 37.14707 | 39979 ft | 447 kts | 253° |
| 2026-04-27 01:15 | -24.99146 | 37.08046 | 39979 ft | 447 kts | 253° |
| 2026-04-27 01:16 | -25.00636 | 37.01423 | 39973 ft | 447 kts | 253° |
| 2026-04-27 01:16 | -25.02133 | 36.94757 | 39976 ft | 447 kts | 254° |
| 2026-04-27 01:17 | -25.03616 | 36.88138 | 39969 ft | 447 kts | 254° |
| 2026-04-27 01:17 | -25.05105 | 36.81478 | 39979 ft | 447 kts | 254° |
| 2026-04-27 01:18 | -25.06590 | 36.74817 | 39976 ft | 447 kts | 254° |
| 2026-04-27 01:18 | -25.07825 | 36.69270 | 39976 ft | 447 kts | 254° |
| 2026-04-27 01:19 | -25.09307 | 36.62597 | 39974 ft | 447 kts | 254° |
| 2026-04-27 01:19 | -25.10776 | 36.55969 | 39971 ft | 447 kts | 254° |
| 2026-04-27 01:20 | -25.12196 | 36.49268 | 39966 ft | 448 kts | 256° |
| 2026-04-27 01:20 | -25.13533 | 36.42541 | 39967 ft | 448 kts | 255° |
| 2026-04-27 01:21 | -25.14872 | 36.35853 | 39975 ft | 448 kts | 255° |
| 2026-04-27 01:21 | -25.16223 | 36.29115 | 39967 ft | 448 kts | 255° |
| 2026-04-27 01:22 | -25.17563 | 36.22425 | 39968 ft | 448 kts | 256° |
| 2026-04-27 01:22 | -25.18910 | 36.15689 | 39970 ft | 447 kts | 256° |
| 2026-04-27 01:23 | -25.20242 | 36.09009 | 39969 ft | 447 kts | 256° |
| 2026-04-27 01:23 | -25.21579 | 36.02291 | 39974 ft | 447 kts | 256° |
| 2026-04-27 01:24 | -25.22912 | 35.95574 | 39966 ft | 447 kts | 256° |
| 2026-04-27 01:24 | -25.24234 | 35.88894 | 39965 ft | 447 kts | 256° |
| 2026-04-27 01:25 | -25.25562 | 35.82169 | 39965 ft | 447 kts | 256° |
| 2026-04-27 01:25 | -25.26886 | 35.75445 | 39970 ft | 447 kts | 256° |
| 2026-04-27 01:26 | -25.28201 | 35.68756 | 39971 ft | 448 kts | 256° |
| 2026-04-27 01:26 | -25.29521 | 35.62021 | 39964 ft | 448 kts | 256° |
| 2026-04-27 01:27 | -25.30828 | 35.55335 | 39966 ft | 448 kts | 256° |
| 2026-04-27 01:27 | -25.32143 | 35.48592 | 39962 ft | 447 kts | 256° |
| 2026-04-27 01:28 | -25.33446 | 35.41889 | 39958 ft | 447 kts | 256° |
| 2026-04-27 01:28 | -25.34751 | 35.35165 | 39962 ft | 447 kts | 256° |
| 2026-04-27 01:28 | -25.35404 | 35.31792 | 39779 ft | 447 kts | 256° |
| 2026-04-27 01:29 | -25.36053 | 35.28433 | 39548 ft | 447 kts | 256° |
| 2026-04-27 01:29 | -25.36695 | 35.25111 | 39321 ft | 448 kts | 256° |
| 2026-04-27 01:29 | -25.37347 | 35.21735 | 39094 ft | 448 kts | 256° |
| 2026-04-27 01:29 | -25.37995 | 35.18367 | 38874 ft | 448 kts | 256° |
| 2026-04-27 01:30 | -25.38646 | 35.14984 | 38640 ft | 449 kts | 256° |
| 2026-04-27 01:30 | -25.39297 | 35.11596 | 38373 ft | 449 kts | 256° |
| 2026-04-27 01:30 | -25.39945 | 35.08216 | 38122 ft | 449 kts | 256° |
| 2026-04-27 01:30 | -25.40585 | 35.04880 | 37859 ft | 449 kts | 256° |
| 2026-04-27 01:31 | -25.41232 | 35.01499 | 37596 ft | 449 kts | 256° |
| 2026-04-27 01:31 | -25.41879 | 34.98113 | 37340 ft | 448 kts | 256° |
| 2026-04-27 01:31 | -25.42524 | 34.94736 | 37073 ft | 449 kts | 256° |
| 2026-04-27 01:31 | -25.43171 | 34.91341 | 36821 ft | 451 kts | 256° |
| 2026-04-27 01:32 | -25.43819 | 34.87937 | 36570 ft | 452 kts | 256° |
| 2026-04-27 01:32 | -25.44458 | 34.84575 | 36332 ft | 451 kts | 256° |
| 2026-04-27 01:32 | -25.45104 | 34.81173 | 36095 ft | 451 kts | 256° |
| 2026-04-27 01:32 | -25.45749 | 34.77773 | 35853 ft | 451 kts | 256° |
| 2026-04-27 01:33 | -25.46394 | 34.74364 | 35617 ft | 451 kts | 256° |
| 2026-04-27 01:33 | -25.47037 | 34.70968 | 35384 ft | 450 kts | 256° |
| 2026-04-27 01:33 | -25.47678 | 34.67573 | 35150 ft | 449 kts | 256° |
| 2026-04-27 01:33 | -25.48310 | 34.64225 | 34922 ft | 449 kts | 256° |
| 2026-04-27 01:34 | -25.48949 | 34.60833 | 34688 ft | 449 kts | 256° |
| 2026-04-27 01:34 | -25.49585 | 34.57450 | 34465 ft | 448 kts | 256° |
| 2026-04-27 01:34 | -25.50220 | 34.54071 | 34234 ft | 448 kts | 256° |
| 2026-04-27 01:34 | -25.50854 | 34.50693 | 34014 ft | 448 kts | 256° |
| 2026-04-27 01:35 | -25.51487 | 34.47317 | 33767 ft | 447 kts | 256° |
| 2026-04-27 01:35 | -25.52120 | 34.43938 | 33506 ft | 447 kts | 256° |
| 2026-04-27 01:35 | -25.52743 | 34.40604 | 33262 ft | 447 kts | 256° |
| 2026-04-27 01:35 | -25.53375 | 34.37219 | 33020 ft | 448 kts | 256° |
| 2026-04-27 01:36 | -25.54006 | 34.33835 | 32762 ft | 448 kts | 256° |
| 2026-04-27 01:36 | -25.54637 | 34.30443 | 32511 ft | 449 kts | 256° |
| 2026-04-27 01:36 | -25.55261 | 34.27090 | 32271 ft | 449 kts | 256° |
| 2026-04-27 01:36 | -25.55892 | 34.23688 | 32024 ft | 450 kts | 256° |
| 2026-04-27 01:37 | -25.56522 | 34.20294 | 31782 ft | 450 kts | 257° |
| 2026-04-27 01:37 | -25.57151 | 34.16895 | 31535 ft | 450 kts | 257° |
| 2026-04-27 01:37 | -25.57780 | 34.13494 | 31324 ft | 450 kts | 257° |
| 2026-04-27 01:37 | -25.58401 | 34.10128 | 31083 ft | 451 kts | 257° |
| 2026-04-27 01:38 | -25.59032 | 34.06731 | 30844 ft | 451 kts | 256° |
| 2026-04-27 01:38 | -25.59688 | 34.03320 | 30620 ft | 452 kts | 256° |
| 2026-04-27 01:38 | -25.60350 | 33.99909 | 30388 ft | 452 kts | 256° |
| 2026-04-27 01:38 | -25.61011 | 33.96493 | 30162 ft | 452 kts | 256° |
| 2026-04-27 01:39 | -25.61669 | 33.93075 | 29926 ft | 453 kts | 256° |
| 2026-04-27 01:39 | -25.62317 | 33.89702 | 29657 ft | 453 kts | 256° |
| 2026-04-27 01:39 | -25.62972 | 33.86286 | 29391 ft | 452 kts | 256° |
| 2026-04-27 01:39 | -25.63625 | 33.82877 | 29042 ft | 450 kts | 257° |
| 2026-04-27 01:40 | -25.64271 | 33.79492 | 28411 ft | 444 kts | 257° |
| 2026-04-27 01:40 | -25.64899 | 33.76197 | 27778 ft | 440 kts | 257° |
| 2026-04-27 01:40 | -25.65528 | 33.72897 | 27151 ft | 436 kts | 257° |
| 2026-04-27 01:40 | -25.66151 | 33.69624 | 26499 ft | 433 kts | 257° |
| 2026-04-27 01:41 | -25.66770 | 33.66368 | 25857 ft | 430 kts | 257° |
| 2026-04-27 01:41 | -25.67383 | 33.63139 | 25232 ft | 427 kts | 257° |
| 2026-04-27 01:41 | -25.67994 | 33.59915 | 24601 ft | 425 kts | 257° |
| 2026-04-27 01:41 | -25.68601 | 33.56713 | 23981 ft | 424 kts | 258° |
| 2026-04-27 01:42 | -25.69207 | 33.53507 | 23313 ft | 423 kts | 258° |
| 2026-04-27 01:42 | -25.69807 | 33.50328 | 22628 ft | 420 kts | 258° |
| 2026-04-27 01:42 | -25.70395 | 33.47208 | 22004 ft | 416 kts | 257° |
| 2026-04-27 01:42 | -25.70987 | 33.44063 | 21383 ft | 413 kts | 257° |
| 2026-04-27 01:43 | -25.71572 | 33.40949 | 20775 ft | 410 kts | 257° |
| 2026-04-27 01:43 | -25.72152 | 33.37865 | 20143 ft | 407 kts | 257° |
| 2026-04-27 01:43 | -25.72726 | 33.34802 | 19509 ft | 404 kts | 257° |
| 2026-04-27 01:43 | -25.73299 | 33.31748 | 18877 ft | 402 kts | 257° |
| 2026-04-27 01:44 | -25.73860 | 33.28750 | 18265 ft | 401 kts | 257° |
| 2026-04-27 01:44 | -25.74426 | 33.25725 | 17570 ft | 399 kts | 257° |
| 2026-04-27 01:44 | -25.74988 | 33.22720 | 16911 ft | 395 kts | 257° |
| 2026-04-27 01:44 | -25.75543 | 33.19745 | 16276 ft | 392 kts | 257° |
| 2026-04-27 01:45 | -25.76094 | 33.16790 | 15631 ft | 389 kts | 257° |
| 2026-04-27 01:45 | -25.76640 | 33.13859 | 14999 ft | 386 kts | 257° |
| 2026-04-27 01:45 | -25.77180 | 33.10953 | 14345 ft | 383 kts | 257° |
| 2026-04-27 01:45 | -25.77716 | 33.08070 | 13727 ft | 380 kts | 258° |
| 2026-04-27 01:46 | -25.78241 | 33.05240 | 13045 ft | 377 kts | 258° |
| 2026-04-27 01:46 | -25.78767 | 33.02394 | 12398 ft | 373 kts | 258° |
| 2026-04-27 01:46 | -25.79287 | 32.99584 | 11769 ft | 369 kts | 258° |
| 2026-04-27 01:46 | -25.79801 | 32.96801 | 11146 ft | 365 kts | 258° |
| 2026-04-27 01:47 | -25.80298 | 32.94110 | 10912 ft | 351 kts | 258° |
| 2026-04-27 01:47 | -25.80776 | 32.91512 | 10787 ft | 334 kts | 258° |
| 2026-04-27 01:47 | -25.81231 | 32.89042 | 10674 ft | 318 kts | 258° |
| 2026-04-27 01:47 | -25.81659 | 32.86715 | 10541 ft | 304 kts | 258° |
| 2026-04-27 01:48 | -25.82073 | 32.84464 | 10428 ft | 291 kts | 258° |
| 2026-04-27 01:48 | -25.82469 | 32.82311 | 10285 ft | 278 kts | 258° |
| 2026-04-27 01:48 | -25.82896 | 32.80255 | 10172 ft | 266 kts | 252° |
| 2026-04-27 01:48 | -25.83723 | 32.78451 | 9989 ft | 263 kts | 232° |
| 2026-04-27 01:49 | -25.85083 | 32.77088 | 9710 ft | 270 kts | 216° |
| 2026-04-27 01:49 | -25.86700 | 32.75922 | 9596 ft | 281 kts | 213° |
| 2026-04-27 01:49 | -25.88325 | 32.74789 | 9222 ft | 279 kts | 213° |
| 2026-04-27 01:49 | -25.89985 | 32.73624 | 8719 ft | 281 kts | 214° |
| 2026-04-27 01:50 | -25.91629 | 32.72462 | 8329 ft | 279 kts | 214° |
| 2026-04-27 01:50 | -25.93260 | 32.71306 | 7990 ft | 278 kts | 214° |
| 2026-04-27 01:50 | -25.94887 | 32.70147 | 7671 ft | 277 kts | 214° |
| 2026-04-27 01:50 | -25.96507 | 32.68993 | 7329 ft | 276 kts | 214° |
| 2026-04-27 01:51 | -25.98103 | 32.67854 | 7010 ft | 275 kts | 214° |
| 2026-04-27 01:51 | -25.99709 | 32.66708 | 6679 ft | 273 kts | 214° |
| 2026-04-27 01:51 | -26.01302 | 32.65570 | 6344 ft | 272 kts | 214° |
| 2026-04-27 01:51 | -26.02893 | 32.64433 | 6015 ft | 270 kts | 214° |
| 2026-04-27 01:52 | -26.04471 | 32.63305 | 5691 ft | 269 kts | 215° |
| 2026-04-27 01:52 | -26.06050 | 32.62176 | 5357 ft | 269 kts | 215° |
| 2026-04-27 01:52 | -26.07618 | 32.61053 | 5033 ft | 267 kts | 215° |
| 2026-04-27 01:52 | -26.09155 | 32.59954 | 4715 ft | 265 kts | 215° |
| 2026-04-27 01:53 | -26.10683 | 32.58804 | 4378 ft | 264 kts | 220° |
| 2026-04-27 01:53 | -26.11700 | 32.57542 | 4107 ft | 261 kts | 241° |
| 2026-04-27 01:53 | -26.12203 | 32.55636 | 3813 ft | 258 kts | 268° |
| 2026-04-27 01:53 | -26.11847 | 32.53701 | 3515 ft | 258 kts | 293° |
| 2026-04-27 01:54 | -26.11010 | 32.51915 | 3226 ft | 259 kts | 298° |
| 2026-04-27 01:54 | -26.10115 | 32.50205 | 3044 ft | 250 kts | 301° |
| 2026-04-27 01:54 | -26.08987 | 32.48850 | 2948 ft | 238 kts | 325° |
| 2026-04-27 01:54 | -26.07458 | 32.48326 | 2899 ft | 228 kts | 357° |
| 2026-04-27 01:55 | -26.05968 | 32.48734 | 2910 ft | 214 kts | 23° |
| 2026-04-27 01:55 | -26.04710 | 32.49483 | 2969 ft | 195 kts | 26° |
| 2026-04-27 01:55 | -26.03655 | 32.50307 | 3008 ft | 179 kts | 38° |
| 2026-04-27 01:55 | -26.02671 | 32.51324 | 3018 ft | 205 kts | 42° |
| 2026-04-27 01:56 | -26.00540 | 32.53632 | 3003 ft | 216 kts | 42° |
| 2026-04-27 01:56 | -25.99479 | 32.54789 | 3001 ft | 217 kts | 42° |
| 2026-04-27 01:56 | -25.98399 | 32.55970 | 3000 ft | 218 kts | 42° |
| 2026-04-27 01:57 | -25.97317 | 32.57155 | 3001 ft | 217 kts | 42° |
| 2026-04-27 01:57 | -25.96240 | 32.58336 | 2994 ft | 218 kts | 42° |
| 2026-04-27 01:57 | -25.95141 | 32.59538 | 2989 ft | 235 kts | 42° |
| 2026-04-27 01:57 | -25.93898 | 32.60887 | 3005 ft | 261 kts | 42° |
| 2026-04-27 01:58 | -25.92571 | 32.62323 | 3000 ft | 268 kts | 41° |
| 2026-04-27 01:58 | -25.91247 | 32.63784 | 2997 ft | 267 kts | 42° |
| 2026-04-27 01:58 | -25.89932 | 32.65238 | 3003 ft | 267 kts | 43° |
| 2026-04-27 01:58 | -25.88617 | 32.66693 | 2998 ft | 266 kts | 42° |
| 2026-04-27 01:59 | -25.87300 | 32.68146 | 2998 ft | 266 kts | 41° |
| 2026-04-27 01:59 | -25.85933 | 32.69528 | 3001 ft | 265 kts | 38° |
| 2026-04-27 01:59 | -25.84568 | 32.70873 | 3003 ft | 265 kts | 38° |
| 2026-04-27 01:59 | -25.83185 | 32.72237 | 3005 ft | 266 kts | 38° |
| 2026-04-27 02:00 | -25.81801 | 32.73539 | 3003 ft | 264 kts | 34° |
| 2026-04-27 02:00 | -25.80228 | 32.74436 | 3001 ft | 244 kts | 13° |
| 2026-04-27 02:00 | -25.78632 | 32.74634 | 2997 ft | 221 kts | 351° |
| 2026-04-27 02:00 | -25.77247 | 32.74165 | 3002 ft | 197 kts | 328° |
| 2026-04-27 02:01 | -25.76256 | 32.73256 | 3005 ft | 175 kts | 308° |
| 2026-04-27 02:01 | -25.75566 | 32.72203 | 3011 ft | 170 kts | 302° |
| 2026-04-27 02:01 | -25.74953 | 32.71076 | 3005 ft | 174 kts | 297° |
| 2026-04-27 02:01 | -25.74463 | 32.69843 | 3005 ft | 174 kts | 290° |
| 2026-04-27 02:02 | -25.74120 | 32.68545 | 3000 ft | 174 kts | 284° |
| 2026-04-27 02:02 | -25.74047 | 32.67256 | 2967 ft | 162 kts | 259° |
| 2026-04-27 02:02 | -25.74668 | 32.66317 | 2992 ft | 151 kts | 219° |
| 2026-04-27 02:02 | -25.75575 | 32.65776 | 2965 ft | 152 kts | 203° |
| 2026-04-27 02:03 | -25.76640 | 32.65594 | 2777 ft | 157 kts | 190° |
| 2026-04-27 02:03 | -25.77718 | 32.65495 | 2546 ft | 151 kts | 190° |
| 2026-04-27 02:03 | -25.78715 | 32.65225 | 2434 ft | 149 kts | 202° |
| 2026-04-27 02:03 | -25.79702 | 32.64856 | 2355 ft | 149 kts | 206° |
| 2026-04-27 02:04 | -25.80643 | 32.64386 | 2242 ft | 148 kts | 214° |
| 2026-04-27 02:04 | -25.81532 | 32.63804 | 2039 ft | 148 kts | 216° |
| 2026-04-27 02:04 | -25.82414 | 32.63234 | 1830 ft | 147 kts | 216° |
| 2026-04-27 02:04 | -25.83293 | 32.62663 | 1625 ft | 146 kts | 217° |
| 2026-04-27 02:05 | -25.84178 | 32.62090 | 1342 ft | 148 kts | 216° |
| 2026-04-27 02:05 | -25.85073 | 32.61543 | 1165 ft | 145 kts | 213° |
| 2026-04-27 02:05 | -25.85950 | 32.61002 | 975 ft | 143 kts | 212° |
| 2026-04-27 02:05 | -25.86822 | 32.60468 | 771 ft | 144 kts | 211° |
| 2026-04-27 02:06 | -25.87406 | 32.60102 | 663 ft | 146 kts | 212° |
| 2026-04-27 02:06 | -25.88597 | 32.59386 | 403 ft | 147 kts | 211° |
| 2026-04-27 02:06 | -25.89491 | 32.58838 | 201 ft | 145 kts | 211° |
| 2026-04-27 02:06 | -25.90334 | 32.58320 | 142 ft | 126 kts | 208° |
| 2026-04-27 02:07 | -25.90822 | 32.58021 | 138 ft | 111 kts | 208° |
| 2026-04-27 02:07 | -25.91429 | 32.57651 | 138 ft | 88 kts | 209° |
| 2026-04-27 02:07 | -25.91779 | 32.57437 | 135 ft | 29 kts | 209° |
| 2026-04-27 02:07 | -25.91954 | 32.57329 | 135 ft | 29 kts | 209° |
| 2026-04-27 02:08 | -25.92058 | 32.57266 | 136 ft | 7 kts | 209° |
| 2026-04-27 02:08 | -25.92166 | 32.57199 | 136 ft | 32 kts | 209° |
| 2026-04-27 02:08 | -25.92369 | 32.57074 | 134 ft | 34 kts | 209° |
| 2026-04-27 02:08 | -25.92492 | 32.57095 | 123 ft | 16 kts | 133° |
| 2026-04-27 02:09 | -25.92515 | 32.57200 | 121 ft | 12 kts | 49° |
| 2026-04-27 02:09 | -25.92439 | 32.57246 | 127 ft | 13 kts | 28° |
| 2026-04-27 02:09 | -25.92363 | 32.57291 | 127 ft | 0 kts | 28° |